sensor_id;sensor_type;location;lat;lon;timestamp;pressure;altitude;pressure_sealevel;temperature;humidity
35479;BME280;21594;49.794;18.652;2022-07-05T00:00:54;98251.41;;;22.56;100.00
35479;BME280;21594;49.794;18.652;2022-07-05T00:05:50;98238.44;;;22.28;100.00
35479;BME280;21594;49.794;18.652;2022-07-05T00:08:24;98238.91;;;22.17;100.00
35479;BME280;21594;49.794;18.652;2022-07-05T00:10:51;98239.74;;;22.17;100.00
35479;BME280;21594;49.794;18.652;2022-07-05T00:13:17;98247.50;;;22.23;100.00
35479;BME280;21594;49.794;18.652;2022-07-05T00:15:44;98242.83;;;22.25;100.00
35479;BME280;21594;49.794;18.652;2022-07-05T00:18:10;98247.19;;;22.36;100.00
35479;BME280;21594;49.794;18.652;2022-07-05T00:20:36;98247.71;;;22.46;100.00
35479;BME280;21594;49.794;18.652;2022-07-05T00:23:02;98252.75;;;22.56;100.00
35479;BME280;21594;49.794;18.652;2022-07-05T00:25:28;98237.75;;;22.55;100.00
35479;BME280;21594;49.794;18.652;2022-07-05T00:27:54;98235.95;;;22.41;100.00
35479;BME280;21594;49.794;18.652;2022-07-05T00:30:20;98230.59;;;22.30;100.00
35479;BME280;21594;49.794;18.652;2022-07-05T00:32:46;98233.11;;;22.28;100.00
35479;BME280;21594;49.794;18.652;2022-07-05T00:35:12;98233.11;;;22.28;100.00
35479;BME280;21594;49.794;18.652;2022-07-05T00:37:38;98238.36;;;22.36;100.00
35479;BME280;21594;49.794;18.652;2022-07-05T00:40:04;98239.56;;;22.44;100.00
35479;BME280;21594;49.794;18.652;2022-07-05T00:42:32;98237.99;;;22.49;100.00
35479;BME280;21594;49.794;18.652;2022-07-05T00:44:59;98244.59;;;22.53;100.00
35479;BME280;21594;49.794;18.652;2022-07-05T00:47:25;98246.97;;;22.52;100.00
35479;BME280;21594;49.794;18.652;2022-07-05T00:49:51;98245.48;;;22.50;100.00
35479;BME280;21594;49.794;18.652;2022-07-05T00:52:17;98247.71;;;22.46;100.00
35479;BME280;21594;49.794;18.652;2022-07-05T00:54:44;98249.41;;;22.43;100.00
35479;BME280;21594;49.794;18.652;2022-07-05T00:57:10;98251.45;;;22.41;100.00
35479;BME280;21594;49.794;18.652;2022-07-05T00:59:37;98252.45;;;22.40;100.00
35479;BME280;21594;49.794;18.652;2022-07-05T01:02:02;98254.14;;;22.37;100.00
35479;BME280;21594;49.794;18.652;2022-07-05T01:04:29;98252.55;;;22.32;100.00
35479;BME280;21594;49.794;18.652;2022-07-05T01:06:55;98250.59;;;22.30;100.00
35479;BME280;21594;49.794;18.652;2022-07-05T01:09:21;98251.77;;;22.28;100.00
35479;BME280;21594;49.794;18.652;2022-07-05T01:11:50;98251.66;;;22.25;100.00
35479;BME280;21594;49.794;18.652;2022-07-05T01:14:17;98245.52;;;22.21;100.00
35479;BME280;21594;49.794;18.652;2022-07-05T01:16:43;98244.75;;;22.16;100.00
35479;BME280;21594;49.794;18.652;2022-07-05T01:19:10;98244.36;;;22.08;100.00
35479;BME280;21594;49.794;18.652;2022-07-05T01:21:48;98239.66;;;21.96;100.00
35479;BME280;21594;49.794;18.652;2022-07-05T01:24:14;98232.31;;;21.79;100.00
35479;BME280;21594;49.794;18.652;2022-07-05T01:26:45;98232.31;;;21.64;100.00
35479;BME280;21594;49.794;18.652;2022-07-05T01:29:11;98230.92;;;21.54;100.00
35479;BME280;21594;49.794;18.652;2022-07-05T01:31:38;98226.92;;;21.54;100.00
35479;BME280;21594;49.794;18.652;2022-07-05T01:34:04;98226.88;;;21.58;100.00
35479;BME280;21594;49.794;18.652;2022-07-05T01:36:39;98224.66;;;21.47;100.00
35479;BME280;21594;49.794;18.652;2022-07-05T01:39:06;98223.11;;;21.52;100.00
35479;BME280;21594;49.794;18.652;2022-07-05T01:41:32;98229.44;;;21.66;100.00
35479;BME280;21594;49.794;18.652;2022-07-05T01:43:59;98231.81;;;21.80;100.00
35479;BME280;21594;49.794;18.652;2022-07-05T01:46:29;98235.08;;;21.86;100.00
35479;BME280;21594;49.794;18.652;2022-07-05T01:48:56;98233.37;;;21.89;100.00
35479;BME280;21594;49.794;18.652;2022-07-05T01:51:24;98239.53;;;21.89;100.00
35479;BME280;21594;49.794;18.652;2022-07-05T01:53:51;98238.52;;;21.90;100.00
35479;BME280;21594;49.794;18.652;2022-07-05T01:56:17;98241.69;;;21.90;100.00
35479;BME280;21594;49.794;18.652;2022-07-05T02:03:45;98237.92;;;21.84;100.00
35479;BME280;21594;49.794;18.652;2022-07-05T02:06:12;98239.63;;;21.81;100.00
35479;BME280;21594;49.794;18.652;2022-07-05T02:08:38;98239.98;;;21.78;100.00
35479;BME280;21594;49.794;18.652;2022-07-05T02:11:04;98242.03;;;21.72;100.00
35479;BME280;21594;49.794;18.652;2022-07-05T02:13:31;98239.30;;;21.65;100.00
35479;BME280;21594;49.794;18.652;2022-07-05T02:15:57;98242.48;;;21.61;100.00
35479;BME280;21594;49.794;18.652;2022-07-05T02:18:24;98246.17;;;21.60;100.00
35479;BME280;21594;49.794;18.652;2022-07-05T02:20:52;98241.02;;;21.58;100.00
35479;BME280;21594;49.794;18.652;2022-07-05T02:23:18;98238.19;;;21.60;100.00
35479;BME280;21594;49.794;18.652;2022-07-05T02:25:44;98237.16;;;21.61;100.00
35479;BME280;21594;49.794;18.652;2022-07-05T02:28:11;98238.19;;;21.60;100.00
35479;BME280;21594;49.794;18.652;2022-07-05T02:30:43;98240.85;;;21.60;100.00
35479;BME280;21594;49.794;18.652;2022-07-05T02:33:13;98238.69;;;21.59;100.00
35479;BME280;21594;49.794;18.652;2022-07-05T02:35:39;98241.48;;;21.62;100.00
35479;BME280;21594;49.794;18.652;2022-07-05T02:38:06;98235.48;;;21.64;100.00
35479;BME280;21594;49.794;18.652;2022-07-05T02:40:32;98236.81;;;21.64;100.00
35479;BME280;21594;49.794;18.652;2022-07-05T02:42:57;98233.36;;;21.59;100.00
35479;BME280;21594;49.794;18.652;2022-07-05T02:45:29;98227.22;;;21.55;100.00
35479;BME280;21594;49.794;18.652;2022-07-05T02:47:57;98223.23;;;21.55;100.00
35479;BME280;21594;49.794;18.652;2022-07-05T02:52:55;98232.20;;;21.58;100.00
35479;BME280;21594;49.794;18.652;2022-07-05T02:55:21;98237.66;;;21.60;100.00
35479;BME280;21594;49.794;18.652;2022-07-05T02:57:47;98240.98;;;21.62;100.00
35479;BME280;21594;49.794;18.652;2022-07-05T03:00:14;98235.52;;;21.60;100.00
35479;BME280;21594;49.794;18.652;2022-07-05T03:02:46;98232.87;;;21.56;100.00
35479;BME280;21594;49.794;18.652;2022-07-05T03:05:12;98229.59;;;21.54;100.00
35479;BME280;21594;49.794;18.652;2022-07-05T03:10:13;98232.19;;;21.43;100.00
35479;BME280;21594;49.794;18.652;2022-07-05T03:12:50;98244.34;;;21.42;100.00
35479;BME280;21594;49.794;18.652;2022-07-05T03:15:18;98243.84;;;21.42;100.00
35479;BME280;21594;49.794;18.652;2022-07-05T03:17:48;98246.67;;;21.41;100.00
35479;BME280;21594;49.794;18.652;2022-07-05T03:20:14;98246.02;;;21.39;100.00
35479;BME280;21594;49.794;18.652;2022-07-05T03:22:40;98245.39;;;21.37;100.00
35479;BME280;21594;49.794;18.652;2022-07-05T03:25:06;98244.23;;;21.35;100.00
35479;BME280;21594;49.794;18.652;2022-07-05T03:27:32;98244.77;;;21.31;100.00
35479;BME280;21594;49.794;18.652;2022-07-05T03:29:58;98239.78;;;21.27;100.00
35479;BME280;21594;49.794;18.652;2022-07-05T03:32:33;98237.83;;;21.25;100.00
35479;BME280;21594;49.794;18.652;2022-07-05T03:34:59;98244.81;;;21.26;100.00
35479;BME280;21594;49.794;18.652;2022-07-05T03:37:25;98251.42;;;21.31;100.00
35479;BME280;21594;49.794;18.652;2022-07-05T03:39:51;98255.25;;;21.32;100.00
35479;BME280;21594;49.794;18.652;2022-07-05T03:42:17;98257.41;;;21.33;100.00
35479;BME280;21594;49.794;18.652;2022-07-05T03:44:44;98264.36;;;21.34;100.00
35479;BME280;21594;49.794;18.652;2022-07-05T03:47:10;98270.02;;;21.35;100.00
35479;BME280;21594;49.794;18.652;2022-07-05T03:49:35;98276.05;;;21.33;100.00
35479;BME280;21594;49.794;18.652;2022-07-05T03:52:02;98278.72;;;21.28;100.00
35479;BME280;21594;49.794;18.652;2022-07-05T03:54:29;98275.42;;;21.26;100.00
35479;BME280;21594;49.794;18.652;2022-07-05T03:56:55;98281.75;;;21.25;100.00
35479;BME280;21594;49.794;18.652;2022-07-05T03:59:20;98279.75;;;21.23;100.00
35479;BME280;21594;49.794;18.652;2022-07-05T04:01:46;98270.19;;;21.14;100.00
35479;BME280;21594;49.794;18.652;2022-07-05T04:04:12;98274.31;;;21.13;100.00
35479;BME280;21594;49.794;18.652;2022-07-05T04:06:39;98270.69;;;21.10;100.00
35479;BME280;21594;49.794;18.652;2022-07-05T04:09:05;98275.34;;;21.08;100.00
35479;BME280;21594;49.794;18.652;2022-07-05T04:11:31;98276.68;;;21.08;100.00
35479;BME280;21594;49.794;18.652;2022-07-05T04:13:57;98273.19;;;21.07;100.00
35479;BME280;21594;49.794;18.652;2022-07-05T04:16:23;98277.88;;;21.05;100.00
35479;BME280;21594;49.794;18.652;2022-07-05T04:18:49;98278.55;;;21.03;100.00
35479;BME280;21594;49.794;18.652;2022-07-05T04:21:17;98281.70;;;21.03;100.00
35479;BME280;21594;49.794;18.652;2022-07-05T04:23:42;98285.20;;;21.03;100.00
35479;BME280;21594;49.794;18.652;2022-07-05T04:26:11;98290.19;;;21.02;100.00
35479;BME280;21594;49.794;18.652;2022-07-05T04:28:37;98291.39;;;21.00;100.00
35479;BME280;21594;49.794;18.652;2022-07-05T04:31:03;98283.58;;;20.98;100.00
35479;BME280;21594;49.794;18.652;2022-07-05T04:33:31;98290.76;;;20.94;100.00
35479;BME280;21594;49.794;18.652;2022-07-05T04:35:57;98289.16;;;20.80;100.00
35479;BME280;21594;49.794;18.652;2022-07-05T04:38:23;98287.06;;;20.68;100.00
35479;BME280;21594;49.794;18.652;2022-07-05T04:40:49;98288.78;;;20.57;100.00
35479;BME280;21594;49.794;18.652;2022-07-05T04:43:15;98283.20;;;20.43;100.00
35479;BME280;21594;49.794;18.652;2022-07-05T04:45:42;98280.07;;;20.36;100.00
35479;BME280;21594;49.794;18.652;2022-07-05T04:48:08;98280.56;;;20.35;100.00
35479;BME280;21594;49.794;18.652;2022-07-05T04:50:35;98291.36;;;20.30;100.00
35479;BME280;21594;49.794;18.652;2022-07-05T04:53:03;98289.72;;;20.25;100.00
35479;BME280;21594;49.794;18.652;2022-07-05T04:55:29;98290.71;;;20.24;100.00
35479;BME280;21594;49.794;18.652;2022-07-05T04:57:56;98290.59;;;20.17;100.00
35479;BME280;21594;49.794;18.652;2022-07-05T05:00:28;98301.53;;;20.22;100.00
35479;BME280;21594;49.794;18.652;2022-07-05T05:02:54;98292.70;;;20.26;100.00
35479;BME280;21594;49.794;18.652;2022-07-05T05:07:51;98304.02;;;20.32;100.00
35479;BME280;21594;49.794;18.652;2022-07-05T05:10:19;98309.13;;;20.41;100.00
35479;BME280;21594;49.794;18.652;2022-07-05T05:12:45;98310.12;;;20.40;100.00
35479;BME280;21594;49.794;18.652;2022-07-05T05:15:11;98314.94;;;20.41;100.00
35479;BME280;21594;49.794;18.652;2022-07-05T05:17:37;98314.44;;;20.41;100.00
35479;BME280;21594;49.794;18.652;2022-07-05T05:20:09;98316.31;;;20.33;100.00
35479;BME280;21594;49.794;18.652;2022-07-05T05:25:06;98320.28;;;20.25;100.00
35479;BME280;21594;49.794;18.652;2022-07-05T05:27:39;98315.13;;;20.27;100.00
35479;BME280;21594;49.794;18.652;2022-07-05T05:30:03;98318.96;;;20.29;100.00
35479;BME280;21594;49.794;18.652;2022-07-05T05:32:29;98317.78;;;20.35;100.00
35479;BME280;21594;49.794;18.652;2022-07-05T05:34:58;98320.06;;;20.46;100.00
35479;BME280;21594;49.794;18.652;2022-07-05T05:37:44;98317.70;;;20.60;100.00
35479;BME280;21594;49.794;18.652;2022-07-05T05:40:03;98318.34;;;20.66;100.00
35479;BME280;21594;49.794;18.652;2022-07-05T05:42:32;98319.31;;;20.73;100.00
35479;BME280;21594;49.794;18.652;2022-07-05T05:44:58;98326.27;;;20.78;100.00
35479;BME280;21594;49.794;18.652;2022-07-05T05:47:24;98333.52;;;20.84;100.00
35479;BME280;21594;49.794;18.652;2022-07-05T05:49:49;98326.88;;;20.84;100.00
35479;BME280;21594;49.794;18.652;2022-07-05T05:52:15;98332.39;;;20.82;100.00
35479;BME280;21594;49.794;18.652;2022-07-05T05:54:46;98335.22;;;20.81;100.00
35479;BME280;21594;49.794;18.652;2022-07-05T05:57:13;98330.25;;;20.74;100.00
35479;BME280;21594;49.794;18.652;2022-07-05T05:59:39;98324.68;;;20.61;100.00
35479;BME280;21594;49.794;18.652;2022-07-05T06:02:05;98319.38;;;20.53;100.00
35479;BME280;21594;49.794;18.652;2022-07-05T06:04:31;98318.10;;;20.44;100.00
35479;BME280;21594;49.794;18.652;2022-07-05T06:07:03;98323.09;;;20.35;100.00
35479;BME280;21594;49.794;18.652;2022-07-05T06:09:29;98325.08;;;20.29;100.00
35479;BME280;21594;49.794;18.652;2022-07-05T06:11:55;98319.45;;;20.24;100.00
35479;BME280;21594;49.794;18.652;2022-07-05T06:14:21;98312.19;;;20.18;100.00
35479;BME280;21594;49.794;18.652;2022-07-05T06:16:56;98313.70;;;20.13;100.00
35479;BME280;21594;49.794;18.652;2022-07-05T06:19:22;98314.67;;;20.08;100.00
35479;BME280;21594;49.794;18.652;2022-07-05T06:21:48;98312.87;;;20.04;100.00
35479;BME280;21594;49.794;18.652;2022-07-05T06:24:19;98310.56;;;20.01;100.00
35479;BME280;21594;49.794;18.652;2022-07-05T06:26:52;98310.23;;;20.00;100.00
35479;BME280;21594;49.794;18.652;2022-07-05T06:29:18;98308.23;;;19.98;100.00
35479;BME280;21594;49.794;18.652;2022-07-05T06:31:50;98306.91;;;19.94;100.00
35479;BME280;21594;49.794;18.652;2022-07-05T06:34:16;98300.95;;;19.88;100.00
35479;BME280;21594;49.794;18.652;2022-07-05T06:36:45;98303.44;;;19.81;100.00
35479;BME280;21594;49.794;18.652;2022-07-05T06:39:14;98308.09;;;19.75;100.00
35479;BME280;21594;49.794;18.652;2022-07-05T06:41:40;98313.10;;;19.74;100.00
35479;BME280;21594;49.794;18.652;2022-07-05T06:44:12;98304.30;;;19.74;100.00
35479;BME280;21594;49.794;18.652;2022-07-05T06:49:16;98314.23;;;19.76;100.00
35479;BME280;21594;49.794;18.652;2022-07-05T06:51:43;98302.63;;;19.77;100.00
35479;BME280;21594;49.794;18.652;2022-07-05T06:54:12;98298.63;;;19.81;100.00
35479;BME280;21594;49.794;18.652;2022-07-05T06:56:47;98301.30;;;19.85;100.00
35479;BME280;21594;49.794;18.652;2022-07-05T06:59:13;98302.29;;;19.84;100.00
35479;BME280;21594;49.794;18.652;2022-07-05T07:01:39;98309.08;;;19.86;100.00
35479;BME280;21594;49.794;18.652;2022-07-05T07:04:07;98312.56;;;19.95;100.00
35479;BME280;21594;49.794;18.652;2022-07-05T07:06:34;98319.98;;;20.08;100.00
35479;BME280;21594;49.794;18.652;2022-07-05T07:09:02;98319.82;;;20.17;100.00
35479;BME280;21594;49.794;18.652;2022-07-05T07:11:48;98319.61;;;20.35;100.00
35479;BME280;21594;49.794;18.652;2022-07-05T07:14:15;98315.56;;;20.51;100.00
35479;BME280;21594;49.794;18.652;2022-07-05T07:16:41;98311.72;;;20.62;100.00
35479;BME280;21594;49.794;18.652;2022-07-05T07:19:07;98312.83;;;20.71;100.00
35479;BME280;21594;49.794;18.652;2022-07-05T07:21:39;98310.00;;;20.73;100.00
35479;BME280;21594;49.794;18.652;2022-07-05T07:24:05;98307.37;;;20.65;100.00
35479;BME280;21594;49.794;18.652;2022-07-05T07:31:36;98305.12;;;20.50;100.00
35479;BME280;21594;49.794;18.652;2022-07-05T07:34:02;98311.59;;;20.47;100.00
35479;BME280;21594;49.794;18.652;2022-07-05T07:36:28;98308.09;;;20.55;100.00
35479;BME280;21594;49.794;18.652;2022-07-05T07:38:54;98308.73;;;20.61;100.00
35479;BME280;21594;49.794;18.652;2022-07-05T07:41:20;98308.67;;;20.69;100.00
35479;BME280;21594;49.794;18.652;2022-07-05T07:43:51;98313.30;;;20.75;100.00
35479;BME280;21594;49.794;18.652;2022-07-05T07:46:23;98321.25;;;20.83;100.00
35479;BME280;21594;49.794;18.652;2022-07-05T07:48:49;98323.85;;;20.91;100.00
35479;BME280;21594;49.794;18.652;2022-07-05T07:51:15;98326.14;;;20.98;100.00
35479;BME280;21594;49.794;18.652;2022-07-05T07:53:42;98328.34;;;20.95;100.00
35479;BME280;21594;49.794;18.652;2022-07-05T07:56:10;98326.52;;;20.91;100.00
35479;BME280;21594;49.794;18.652;2022-07-05T07:58:38;98332.99;;;20.93;100.00
35479;BME280;21594;49.794;18.652;2022-07-05T08:01:04;98328.01;;;20.94;100.00
35479;BME280;21594;49.794;18.652;2022-07-05T08:03:41;98329.30;;;20.98;100.00
35479;BME280;21594;49.794;18.652;2022-07-05T08:08:59;98333.16;;;20.91;100.00
35479;BME280;21594;49.794;18.652;2022-07-05T08:11:25;98335.98;;;20.94;100.00
35479;BME280;21594;49.794;18.652;2022-07-05T08:13:56;98331.30;;;21.00;100.00
35479;BME280;21594;49.794;18.652;2022-07-05T08:16:22;98345.54;;;21.11;100.00
35479;BME280;21594;49.794;18.652;2022-07-05T08:18:48;98345.00;;;21.19;100.00
35479;BME280;21594;49.794;18.652;2022-07-05T08:21:38;98340.81;;;21.25;100.00
35479;BME280;21594;49.794;18.652;2022-07-05T08:24:05;98342.77;;;21.31;100.00
35479;BME280;21594;49.794;18.652;2022-07-05T08:26:32;98340.23;;;21.34;100.00
35479;BME280;21594;49.794;18.652;2022-07-05T08:28:58;98336.24;;;21.34;100.00
35479;BME280;21594;49.794;18.652;2022-07-05T08:31:25;98341.44;;;21.31;100.00
35479;BME280;21594;49.794;18.652;2022-07-05T08:33:53;98342.97;;;21.25;100.00
35479;BME280;21594;49.794;18.652;2022-07-05T08:36:23;98340.64;;;21.26;100.00
35479;BME280;21594;49.794;18.652;2022-07-05T08:38:47;98348.30;;;21.25;100.00
35479;BME280;21594;49.794;18.652;2022-07-05T08:41:13;98346.70;;;21.08;100.00
35479;BME280;21594;49.794;18.652;2022-07-05T08:43:41;98349.42;;;20.96;100.00
35479;BME280;21594;49.794;18.652;2022-07-05T08:46:09;98354.78;;;20.92;100.00
35479;BME280;21594;49.794;18.652;2022-07-05T08:48:38;98351.81;;;20.87;100.00
35479;BME280;21594;49.794;18.652;2022-07-05T09:04:09;98348.66;;;21.18;100.00
35479;BME280;21594;49.794;18.652;2022-07-05T09:06:39;98355.41;;;21.29;100.00
35479;BME280;21594;49.794;18.652;2022-07-05T09:09:06;98348.42;;;21.32;100.00
35479;BME280;21594;49.794;18.652;2022-07-05T09:11:36;98353.45;;;21.27;100.00
35479;BME280;21594;49.794;18.652;2022-07-05T09:14:05;98350.30;;;21.23;100.00
35479;BME280;21594;49.794;18.652;2022-07-05T09:16:32;98345.03;;;21.15;100.00
35479;BME280;21594;49.794;18.652;2022-07-05T09:19:05;98344.20;;;21.11;100.00
35479;BME280;21594;49.794;18.652;2022-07-05T09:21:32;98341.02;;;21.11;100.00
35479;BME280;21594;49.794;18.652;2022-07-05T09:29:12;98351.19;;;21.08;100.00
35479;BME280;21594;49.794;18.652;2022-07-05T09:31:40;98347.17;;;21.12;100.00
35479;BME280;21594;49.794;18.652;2022-07-05T09:34:10;98351.92;;;21.28;100.00
35479;BME280;21594;49.794;18.652;2022-07-05T09:42:22;98366.98;;;21.63;100.00
35479;BME280;21594;49.794;18.652;2022-07-05T09:44:54;98365.78;;;21.69;100.00
35479;BME280;21594;49.794;18.652;2022-07-05T09:47:21;98363.28;;;21.68;100.00
35479;BME280;21594;49.794;18.652;2022-07-05T09:49:51;98363.78;;;21.49;100.00
35479;BME280;21594;49.794;18.652;2022-07-05T09:55:11;98366.77;;;21.23;100.00
35479;BME280;21594;49.794;18.652;2022-07-05T09:57:40;98368.30;;;21.21;100.00
35479;BME280;21594;49.794;18.652;2022-07-05T10:02:36;98364.83;;;21.09;100.00
35479;BME280;21594;49.794;18.652;2022-07-05T10:07:38;98362.42;;;20.91;100.00
35479;BME280;21594;49.794;18.652;2022-07-05T10:10:06;98358.66;;;20.81;100.00
35479;BME280;21594;49.794;18.652;2022-07-05T10:12:32;98359.51;;;20.74;100.00
35479;BME280;21594;49.794;18.652;2022-07-05T10:15:00;98360.20;;;20.72;100.00
35479;BME280;21594;49.794;18.652;2022-07-05T10:17:26;98350.06;;;20.71;100.00
35479;BME280;21594;49.794;18.652;2022-07-05T10:19:55;98356.20;;;20.68;100.00
35479;BME280;21594;49.794;18.652;2022-07-05T10:22:22;98362.87;;;20.64;100.00
35479;BME280;21594;49.794;18.652;2022-07-05T10:24:49;98357.72;;;20.62;100.00
35479;BME280;21594;49.794;18.652;2022-07-05T10:27:15;98358.39;;;20.64;100.00
35479;BME280;21594;49.794;18.652;2022-07-05T10:29:42;98355.08;;;20.66;100.00
35479;BME280;21594;49.794;18.652;2022-07-05T10:32:08;98355.41;;;20.67;100.00
35479;BME280;21594;49.794;18.652;2022-07-05T10:34:35;98358.54;;;20.71;100.00
35479;BME280;21594;49.794;18.652;2022-07-05T10:37:03;98358.23;;;20.66;100.00
35479;BME280;21594;49.794;18.652;2022-07-05T10:39:29;98358.39;;;20.64;100.00
35479;BME280;21594;49.794;18.652;2022-07-05T10:41:56;98356.56;;;20.65;100.00
35479;BME280;21594;49.794;18.652;2022-07-05T10:44:29;98356.23;;;20.64;100.00
35479;BME280;21594;49.794;18.652;2022-07-05T10:47:08;98363.73;;;20.60;100.00
35479;BME280;21594;49.794;18.652;2022-07-05T10:49:40;98362.23;;;20.58;100.00
35479;BME280;21594;49.794;18.652;2022-07-05T10:52:25;98361.91;;;20.61;100.00
35479;BME280;21594;49.794;18.652;2022-07-05T10:57:35;98358.74;;;20.57;100.00
35479;BME280;21594;49.794;18.652;2022-07-05T11:00:05;98356.28;;;20.56;100.00
35479;BME280;21594;49.794;18.652;2022-07-05T11:02:29;98352.45;;;20.54;100.00
35479;BME280;21594;49.794;18.652;2022-07-05T11:04:55;98355.11;;;20.54;100.00
35479;BME280;21594;49.794;18.652;2022-07-05T11:10:09;98352.14;;;20.49;100.00
35479;BME280;21594;49.794;18.652;2022-07-05T11:12:36;98359.29;;;20.49;100.00
35479;BME280;21594;49.794;18.652;2022-07-05T11:15:06;98350.48;;;20.48;100.00
35479;BME280;21594;49.794;18.652;2022-07-05T11:23:07;98351.32;;;20.40;100.00
35479;BME280;21594;49.794;18.652;2022-07-05T11:25:37;98345.53;;;20.37;100.00
35479;BME280;21594;49.794;18.652;2022-07-05T11:28:12;98342.39;;;20.33;100.00
35479;BME280;21594;49.794;18.652;2022-07-05T11:30:50;98343.68;;;20.29;100.00
35479;BME280;21594;49.794;18.652;2022-07-05T11:36:00;98345.06;;;20.17;100.00
35479;BME280;21594;49.794;18.652;2022-07-05T11:38:26;98345.24;;;20.12;100.00
35479;BME280;21594;49.794;18.652;2022-07-05T11:40:52;98348.91;;;20.07;100.00
35479;BME280;21594;49.794;18.652;2022-07-05T11:43:26;98338.60;;;20.03;100.00
35479;BME280;21594;49.794;18.652;2022-07-05T11:45:59;98343.93;;;19.99;100.00
35479;BME280;21594;49.794;18.652;2022-07-05T11:48:31;98342.77;;;19.94;100.00
35479;BME280;21594;49.794;18.652;2022-07-05T11:50:57;98346.77;;;19.94;100.00
35479;BME280;21594;49.794;18.652;2022-07-05T11:53:28;98339.62;;;19.86;100.00
35479;BME280;21594;49.794;18.652;2022-07-05T11:55:56;98341.95;;;19.81;100.00
35479;BME280;21594;49.794;18.652;2022-07-05T11:58:22;98335.48;;;19.76;100.00
35479;BME280;21594;49.794;18.652;2022-07-05T12:00:55;98342.47;;;19.73;100.00
35479;BME280;21594;49.794;18.652;2022-07-05T12:03:23;98343.62;;;19.70;100.00
35479;BME280;21594;49.794;18.652;2022-07-05T12:05:50;98334.02;;;19.69;100.00
35479;BME280;21594;49.794;18.652;2022-07-05T12:08:20;98331.02;;;19.72;100.00
35479;BME280;21594;49.794;18.652;2022-07-05T12:10:50;98325.55;;;19.74;100.00
35479;BME280;21594;49.794;18.652;2022-07-05T12:13:46;98324.37;;;19.72;100.00
35479;BME280;21594;49.794;18.652;2022-07-05T12:16:10;98320.56;;;19.67;100.00
35479;BME280;21594;49.794;18.652;2022-07-05T12:18:53;98319.58;;;19.63;100.00
35479;BME280;21594;49.794;18.652;2022-07-05T12:21:20;98313.27;;;19.60;100.00
35479;BME280;21594;49.794;18.652;2022-07-05T12:23:48;98317.24;;;19.60;100.00
35479;BME280;21594;49.794;18.652;2022-07-05T12:26:19;98320.90;;;19.55;100.00
35479;BME280;21594;49.794;18.652;2022-07-05T12:28:47;98325.55;;;19.57;100.00
35479;BME280;21594;49.794;18.652;2022-07-05T12:34:35;98324.23;;;19.57;100.00
35479;BME280;21594;49.794;18.652;2022-07-05T12:37:01;98330.20;;;19.51;100.00
35479;BME280;21594;49.794;18.652;2022-07-05T12:39:27;98331.84;;;19.48;100.00
35479;BME280;21594;49.794;18.652;2022-07-05T12:41:53;98331.47;;;19.43;100.00
35479;BME280;21594;49.794;18.652;2022-07-05T12:47:35;98332.97;;;19.38;100.00
35479;BME280;21594;49.794;18.652;2022-07-05T12:49:58;98333.45;;;19.37;100.00
35479;BME280;21594;49.794;18.652;2022-07-05T12:52:25;98331.83;;;19.36;100.00
35479;BME280;21594;49.794;18.652;2022-07-05T12:55:09;98338.12;;;19.39;100.00
35479;BME280;21594;49.794;18.652;2022-07-05T12:57:37;98337.44;;;19.37;100.00
35479;BME280;21594;49.794;18.652;2022-07-05T13:00:22;98336.45;;;19.38;100.00
35479;BME280;21594;49.794;18.652;2022-07-05T13:02:48;98335.12;;;19.38;100.00
35479;BME280;21594;49.794;18.652;2022-07-05T13:05:25;98337.78;;;19.34;100.00
35479;BME280;21594;49.794;18.652;2022-07-05T13:07:49;98338.28;;;19.34;100.00
35479;BME280;21594;49.794;18.652;2022-07-05T13:10:20;98342.26;;;19.34;100.00
35479;BME280;21594;49.794;18.652;2022-07-05T13:12:46;98351.05;;;19.34;100.00
35479;BME280;21594;49.794;18.652;2022-07-05T13:15:15;98356.36;;;19.34;100.00
35479;BME280;21594;49.794;18.652;2022-07-05T13:17:41;98355.34;;;19.31;100.00
35479;BME280;21594;49.794;18.652;2022-07-05T13:20:12;98354.36;;;19.28;100.00
35479;BME280;21594;49.794;18.652;2022-07-05T13:22:35;98350.72;;;19.25;100.00
35479;BME280;21594;49.794;18.652;2022-07-05T13:25:01;98349.05;;;19.20;100.00
35479;BME280;21594;49.794;18.652;2022-07-05T13:27:29;98347.73;;;19.20;100.00
35479;BME280;21594;49.794;18.652;2022-07-05T13:29:55;98341.41;;;19.17;100.00
35479;BME280;21594;49.794;18.652;2022-07-05T13:32:21;98347.73;;;19.20;100.00
35479;BME280;21594;49.794;18.652;2022-07-05T13:34:47;98347.20;;;19.20;100.00
35479;BME280;21594;49.794;18.652;2022-07-05T13:37:14;98357.51;;;19.19;100.00
35479;BME280;21594;49.794;18.652;2022-07-05T13:39:40;98363.46;;;19.17;100.00
35479;BME280;21594;49.794;18.652;2022-07-05T13:42:06;98360.63;;;19.15;100.00
35479;BME280;21594;49.794;18.652;2022-07-05T13:44:32;98364.95;;;19.16;100.00
35479;BME280;21594;49.794;18.652;2022-07-05T13:46:58;98368.92;;;19.12;100.00
35479;BME280;21594;49.794;18.652;2022-07-05T13:49:24;98363.43;;;19.09;100.00
35479;BME280;21594;49.794;18.652;2022-07-05T13:51:53;98364.94;;;19.08;100.00
35479;BME280;21594;49.794;18.652;2022-07-05T13:54:19;98366.58;;;19.05;100.00
35479;BME280;21594;49.794;18.652;2022-07-05T13:56:45;98363.92;;;19.05;100.00
35479;BME280;21594;49.794;18.652;2022-07-05T13:59:11;98364.75;;;19.05;100.00
35479;BME280;21594;49.794;18.652;2022-07-05T14:01:37;98358.46;;;19.02;100.00
35479;BME280;21594;49.794;18.652;2022-07-05T14:04:03;98357.94;;;18.99;100.00